This is the latest recevied weather packets stored in our database for station/object WX6HNX-6. If no packets are shown the sender has not sent any weather packets the latest 10 day(s).
| Time | Temp. | Humidity | Pressure | Rain* | Wind** | Luminosity | Snow |
|---|---|---|---|---|---|---|---|
| 1777834849 | 23.89° C | 39% | 1012.3 hPa | 0 mm | - | - | - |
| 1777834249 | 23.33° C | 43% | 1012.4 hPa | 0 mm | - | - | - |
| 1777833949 | 23.33° C | 41% | 1012.4 hPa | 0 mm | - | - | - |
| 1777833649 | 23.89° C | 40% | 1012.5 hPa | 0 mm | - | - | - |
| 1777833351 | 23.33° C | 41% | 1012.4 hPa | 0 mm | - | - | - |
| 1777833049 | 22.78° C | 42% | 1012.5 hPa | 0 mm | - | - | - |
| 1777832749 | 22.78° C | 44% | 1012.5 hPa | 0 mm | - | - | - |
| 1777832449 | 22.78° C | 44% | 1012.5 hPa | 0 mm | - | - | - |
| 1777832149 | 22.22° C | 44% | 1012.4 hPa | 0 mm | - | - | - |
| 1777831849 | 22.22° C | 43% | 1012.4 hPa | 0 mm | - | - | - |
| 1777831549 | 22.22° C | 43% | 1012.5 hPa | 0 mm | - | - | - |
| 1777831249 | 22.78° C | 42% | 1012.5 hPa | 0 mm | - | - | - |
| 1777830949 | 22.22° C | 43% | 1012.4 hPa | 0 mm | - | - | - |
| 1777830649 | 21.67° C | 45% | 1012.4 hPa | 0 mm | - | - | - |
| 1777830134 | 21.67° C | 45% | 1012.5 hPa | 0 mm | - | - | - |
| 1777829834 | 21.67° C | 44% | 1012.5 hPa | 0 mm | - | - | - |
| 1777829534 | 21.67° C | 45% | 1012.5 hPa | 0 mm | - | - | - |
| 1777829234 | 21.67° C | 45% | 1012.5 hPa | 0 mm | - | - | - |
| 1777828934 | 21.11° C | 45% | 1012.4 hPa | 0 mm | - | - | - |
| 1777828634 | 21.11° C | 46% | 1012.4 hPa | 0 mm | - | - | - |
| 1777828334 | 20.56° C | 47% | 1012.3 hPa | 0 mm | - | - | - |
| 1777828034 | 20.56° C | 48% | 1012.2 hPa | 0 mm | - | - | - |
| 1777827734 | 20.56° C | 48% | 1012.3 hPa | 0 mm | - | - | - |
| 1777827134 | 20° C | 50% | 1012.3 hPa | 0 mm | - | - | - |
| 1777826835 | 19.44° C | 51% | 1012.3 hPa | 0 mm | - | - | - |
* Rain latest hour (hover to see other rain measurements)
** Current wind speed in m/s (hover to see current wind gust speed)